createdAt,value
2018-04-07T00:00:46.529Z,5.4
2018-04-07T00:01:48.182Z,6.7
2018-04-07T00:02:49.835Z,7.0
2018-04-07T00:03:51.479Z,8.6
2018-04-07T00:04:53.126Z,7.1
2018-04-07T00:05:54.779Z,14.7
2018-04-07T00:06:56.431Z,14.4
2018-04-07T00:07:58.092Z,10.4
2018-04-07T00:08:59.744Z,6.4
2018-04-07T00:10:01.392Z,7.5
2018-04-07T00:11:03.040Z,7.0
2018-04-07T00:12:04.689Z,7.6
2018-04-07T00:13:06.342Z,5.5
2018-04-07T00:14:07.985Z,5.2
2018-04-07T00:15:09.636Z,5.8
2018-04-07T00:16:11.282Z,4.6
2018-04-07T00:17:12.929Z,8.0
2018-04-07T00:18:14.588Z,5.5
2018-04-07T00:19:16.248Z,8.2
2018-04-07T00:20:17.899Z,7.5
2018-04-07T00:21:19.540Z,6.3
2018-04-07T00:22:21.194Z,10.2
2018-04-07T00:23:22.861Z,7.0
2018-04-07T00:24:24.503Z,6.7
2018-04-07T00:25:26.149Z,6.3
2018-04-07T00:26:27.809Z,6.5
2018-04-07T00:27:29.457Z,9.2
2018-04-07T00:28:31.107Z,6.0
2018-04-07T00:29:32.748Z,7.8
2018-04-07T00:30:34.403Z,7.4
2018-04-07T00:31:36.059Z,7.6
2018-04-07T00:32:37.713Z,6.8
2018-04-07T00:33:39.370Z,6.3
2018-04-07T00:34:41.012Z,7.4
2018-04-07T00:35:42.660Z,6.5
2018-04-07T00:36:44.303Z,7.0
2018-04-07T00:37:45.960Z,7.9
2018-04-07T00:38:47.614Z,7.8
2018-04-07T00:39:49.259Z,23.3
2018-04-07T00:40:50.908Z,14.1
2018-04-07T00:41:52.550Z,8.1
2018-04-07T00:42:54.206Z,6.4
2018-04-07T00:43:55.876Z,7.2
2018-04-07T00:44:57.525Z,6.5
2018-04-07T00:45:59.175Z,6.7
2018-04-07T00:47:00.892Z,6.5
2018-04-07T00:48:02.532Z,6.1
2018-04-07T00:49:04.176Z,5.2
2018-04-07T00:50:05.837Z,7.8
2018-04-07T00:51:07.482Z,5.2
2018-04-07T00:52:09.130Z,7.1
2018-04-07T00:53:10.783Z,6.4
2018-04-07T00:54:12.432Z,7.7
2018-04-07T00:55:14.068Z,6.0
2018-04-07T00:56:15.719Z,7.5
2018-04-07T00:57:17.374Z,6.5
2018-04-07T00:58:19.023Z,7.8
2018-04-07T00:59:20.680Z,7.3
2018-04-07T01:00:22.326Z,7.5
2018-04-07T01:01:23.981Z,6.5
2018-04-07T01:02:25.618Z,7.8
2018-04-07T01:03:27.260Z,7.1
2018-04-07T01:04:28.914Z,6.9
2018-04-07T01:05:30.578Z,6.7
2018-04-07T01:06:32.226Z,7.6
2018-04-07T01:07:33.872Z,6.3
2018-04-07T01:08:35.532Z,7.0
2018-04-07T01:09:37.189Z,6.4
2018-04-07T01:10:38.840Z,6.3
2018-04-07T01:11:40.488Z,7.0
2018-04-07T01:12:42.133Z,9.9
2018-04-07T01:13:43.776Z,9.1
2018-04-07T01:14:45.444Z,7.2
2018-04-07T01:15:47.112Z,8.7
2018-04-07T01:16:48.755Z,6.4
2018-04-07T01:17:50.401Z,6.3
2018-04-07T01:18:52.050Z,10.1
2018-04-07T01:19:53.702Z,9.4
2018-04-07T01:20:55.359Z,6.0
2018-04-07T01:21:57.007Z,8.5
2018-04-07T01:22:58.662Z,9.8
2018-04-07T01:24:00.304Z,7.5
2018-04-07T01:25:01.954Z,8.6
2018-04-07T01:26:03.596Z,7.0
2018-04-07T01:27:05.243Z,8.3
2018-04-07T01:28:06.887Z,10.0
2018-04-07T01:29:08.534Z,11.1
2018-04-07T01:30:10.173Z,9.6
2018-04-07T01:31:11.828Z,9.5
2018-04-07T01:32:13.463Z,8.6
2018-04-07T01:33:15.110Z,9.3
2018-04-07T01:34:16.762Z,8.0
2018-04-07T01:35:18.401Z,7.4
2018-04-07T01:36:20.059Z,6.2
2018-04-07T01:37:21.703Z,7.9
2018-04-07T01:38:23.342Z,9.5
2018-04-07T01:39:24.984Z,8.0
2018-04-07T01:40:26.642Z,9.1
2018-04-07T01:41:28.299Z,6.9
2018-04-07T01:42:29.944Z,8.4
2018-04-07T01:43:31.582Z,8.1
2018-04-07T01:44:33.243Z,8.8
2018-04-07T01:45:34.885Z,7.7
2018-04-07T01:46:36.523Z,7.7
2018-04-07T01:47:38.172Z,7.5
2018-04-07T01:48:39.825Z,7.6
2018-04-07T01:49:41.460Z,7.3
2018-04-07T01:50:43.103Z,8.1
2018-04-07T01:51:44.780Z,9.0
2018-04-07T01:52:46.416Z,8.3
2018-04-07T01:53:48.075Z,12.7
2018-04-07T01:54:49.724Z,8.4
2018-04-07T02:01:03.992Z,10.4
2018-04-07T02:02:05.644Z,8.9
2018-04-07T02:03:07.308Z,10.1
2018-04-07T02:04:08.957Z,8.8
2018-04-07T02:05:10.599Z,7.0
2018-04-07T02:06:12.248Z,12.6
2018-04-07T02:07:13.883Z,11.6
2018-04-07T02:08:15.531Z,6.3
2018-04-07T02:09:17.162Z,7.6
2018-04-07T02:10:18.816Z,9.2
2018-04-07T02:11:20.465Z,9.5
2018-04-07T02:12:22.106Z,7.4
2018-04-07T02:13:23.740Z,7.1
2018-04-07T02:14:25.429Z,7.9
2018-04-07T02:15:27.028Z,6.9
2018-04-07T02:16:28.665Z,8.6
2018-04-07T02:17:30.302Z,8.3
2018-04-07T02:18:31.944Z,9.0
2018-04-07T02:19:33.582Z,10.3
2018-04-07T02:20:35.217Z,7.0
2018-04-07T02:21:36.864Z,8.4
2018-04-07T02:22:38.509Z,10.8
2018-04-07T02:23:40.155Z,9.2
2018-04-07T02:24:41.794Z,8.6
2018-04-07T02:25:43.439Z,8.7
2018-04-07T02:26:45.117Z,9.5
2018-04-07T02:27:46.760Z,7.8
2018-04-07T02:28:48.417Z,11.3
2018-04-07T02:29:50.061Z,8.6
2018-04-07T02:30:51.729Z,12.9
2018-04-07T02:31:53.387Z,8.9
2018-04-07T02:32:55.050Z,8.4
2018-04-07T02:33:56.690Z,8.6
2018-04-07T02:34:58.330Z,8.4
2018-04-07T02:35:59.981Z,7.5
2018-04-07T02:37:01.639Z,7.2
2018-04-07T02:38:03.269Z,9.8
2018-04-07T02:39:04.916Z,8.1
2018-04-07T02:40:06.571Z,12.2
2018-04-07T02:41:08.203Z,8.3
2018-04-07T02:42:09.850Z,8.0
2018-04-07T02:43:11.494Z,8.3
2018-04-07T02:44:13.150Z,9.2
2018-04-07T02:45:14.790Z,10.6
2018-04-07T02:46:16.450Z,8.6
2018-04-07T02:47:18.075Z,8.6
2018-04-07T02:48:19.722Z,8.5
2018-04-07T02:49:21.368Z,9.1
2018-04-07T02:50:23.030Z,9.7
2018-04-07T02:51:24.685Z,10.1
2018-04-07T02:52:26.330Z,8.2
2018-04-07T02:53:27.977Z,9.5
2018-04-07T02:54:29.633Z,8.9
2018-04-07T02:55:31.278Z,10.8
2018-04-07T02:56:32.925Z,8.3
2018-04-07T02:57:34.570Z,10.9
2018-04-07T02:58:36.216Z,7.3
2018-04-07T02:59:37.853Z,7.5
2018-04-07T03:00:39.500Z,7.2
2018-04-07T03:01:41.163Z,8.4
2018-04-07T03:02:42.793Z,7.7
2018-04-07T03:03:44.444Z,10.3
2018-04-07T03:04:46.084Z,8.4
2018-04-07T03:05:47.736Z,10.8
2018-04-07T03:06:49.375Z,8.2
2018-04-07T03:07:51.024Z,7.0
2018-04-07T03:08:52.663Z,8.3
2018-04-07T03:09:54.307Z,10.2
2018-04-07T03:10:55.954Z,10.1
2018-04-07T03:11:57.599Z,6.6
2018-04-07T03:12:59.253Z,11.2
2018-04-07T03:14:00.892Z,8.5
2018-04-07T03:15:02.542Z,8.4
2018-04-07T03:16:04.180Z,7.9
2018-04-07T03:17:05.832Z,9.6
2018-04-07T03:18:07.477Z,8.5
2018-04-07T03:19:09.123Z,8.9
2018-04-07T03:20:10.764Z,12.7
2018-04-07T03:21:12.423Z,7.7
2018-04-07T03:22:14.072Z,9.7
2018-04-07T03:23:15.714Z,8.3
2018-04-07T03:24:17.351Z,7.8
2018-04-07T03:25:19.004Z,8.5
2018-04-07T03:26:20.710Z,8.5
2018-04-07T03:27:22.291Z,7.3
2018-04-07T03:28:23.945Z,8.8
2018-04-07T03:29:25.615Z,7.6
2018-04-07T03:30:27.241Z,8.8
2018-04-07T03:31:28.884Z,8.1
2018-04-07T03:32:30.538Z,10.0
2018-04-07T03:33:32.188Z,12.2
2018-04-07T03:34:33.827Z,8.1
2018-04-07T03:35:35.479Z,10.0
2018-04-07T03:36:37.125Z,7.8
2018-04-07T03:37:38.774Z,9.1
2018-04-07T03:38:40.424Z,7.1
2018-04-07T03:39:42.067Z,8.6
2018-04-07T03:40:43.727Z,8.6
2018-04-07T03:41:45.404Z,10.2
2018-04-07T03:42:47.052Z,8.8
2018-04-07T03:43:48.689Z,10.8
2018-04-07T03:44:50.338Z,9.4
2018-04-07T03:45:51.988Z,11.9
2018-04-07T03:46:53.629Z,11.9
2018-04-07T03:47:55.268Z,8.9
2018-04-07T03:48:56.915Z,10.8
2018-04-07T03:49:58.554Z,9.4
2018-04-07T03:51:00.193Z,10.2
2018-04-07T03:52:01.870Z,9.5
2018-04-07T03:53:03.518Z,10.2
2018-04-07T03:54:05.165Z,8.2
2018-04-07T03:55:06.808Z,10.2
2018-04-07T03:56:08.452Z,9.3
2018-04-07T03:57:10.101Z,9.6
2018-04-07T03:58:11.740Z,11.9
2018-04-07T03:59:13.384Z,6.7
2018-04-07T04:00:15.043Z,9.5
2018-04-07T04:01:16.684Z,9.5
2018-04-07T04:02:18.323Z,9.1
2018-04-07T04:03:19.980Z,10.9
2018-04-07T04:04:21.613Z,11.5
2018-04-07T04:05:23.273Z,10.5
2018-04-07T04:06:24.917Z,11.8
2018-04-07T04:07:26.550Z,10.4
2018-04-07T04:08:28.195Z,13.2
2018-04-07T04:09:29.857Z,13.9
2018-04-07T04:10:31.490Z,10.7
2018-04-07T04:11:33.135Z,10.5
2018-04-07T04:12:34.781Z,9.2
2018-04-07T04:13:36.420Z,8.2
2018-04-07T04:14:38.086Z,8.0
2018-04-07T04:15:39.716Z,10.9
2018-04-07T04:16:41.362Z,7.5
2018-04-07T04:17:42.998Z,8.9
2018-04-07T04:18:44.645Z,11.3
2018-04-07T04:19:46.282Z,8.6
2018-04-07T04:20:47.933Z,11.0
2018-04-07T04:21:49.571Z,9.4
2018-04-07T04:22:51.217Z,8.7
2018-04-07T04:23:52.857Z,8.9
2018-04-07T04:24:54.501Z,9.8
2018-04-07T04:25:56.145Z,10.0
2018-04-07T04:26:57.792Z,12.3
2018-04-07T04:27:59.441Z,13.2
2018-04-07T04:29:01.083Z,8.9
2018-04-07T04:30:02.732Z,9.8
2018-04-07T04:31:04.374Z,8.9
2018-04-07T04:32:06.023Z,8.1
2018-04-07T04:33:07.679Z,9.5
2018-04-07T04:34:09.324Z,9.8
2018-04-07T04:35:10.965Z,11.1
2018-04-07T04:36:12.608Z,10.6
2018-04-07T04:37:14.254Z,10.2
2018-04-07T04:38:15.910Z,11.0
2018-04-07T04:39:17.555Z,10.9
2018-04-07T04:40:19.197Z,11.2
2018-04-07T04:41:20.845Z,10.8
2018-04-07T04:42:22.486Z,11.2
2018-04-07T04:43:24.163Z,10.5
2018-04-07T04:44:25.879Z,10.2
2018-04-07T04:45:27.536Z,10.9
2018-04-07T04:46:29.180Z,12.4
2018-04-07T04:47:30.832Z,9.9
2018-04-07T04:48:32.491Z,11.5
2018-04-07T04:49:34.134Z,8.6
2018-04-07T04:50:35.786Z,7.4
2018-04-07T04:51:37.425Z,13.5
2018-04-07T04:52:39.073Z,11.2
2018-04-07T04:53:40.724Z,11.0
2018-04-07T04:54:42.361Z,16.1
2018-04-07T04:55:44.017Z,9.7
2018-04-07T04:56:45.704Z,10.0
2018-04-07T04:57:47.330Z,11.2
2018-04-07T04:58:48.989Z,9.1
2018-04-07T04:59:50.636Z,10.3
2018-04-07T05:00:52.279Z,9.4
2018-04-07T05:01:53.930Z,9.9
2018-04-07T05:02:55.576Z,11.2
2018-04-07T05:03:57.226Z,9.3
2018-04-07T05:04:58.888Z,11.0
2018-04-07T05:06:00.535Z,18.3
2018-04-07T05:07:02.190Z,11.6
2018-04-07T05:08:03.837Z,10.5
2018-04-07T05:09:05.489Z,10.3
2018-04-07T05:10:07.136Z,12.6
2018-04-07T05:11:08.792Z,11.3
2018-04-07T05:12:10.453Z,11.5
2018-04-07T05:13:12.103Z,9.6
2018-04-07T05:14:13.753Z,13.4
2018-04-07T05:15:15.413Z,10.2
2018-04-07T05:16:17.056Z,9.4
2018-04-07T05:17:18.706Z,9.6
2018-04-07T05:18:20.343Z,12.4
2018-04-07T05:19:22.001Z,10.1
2018-04-07T05:20:23.651Z,11.6
2018-04-07T05:21:25.298Z,9.1
2018-04-07T05:22:26.944Z,14.1
2018-04-07T05:23:28.599Z,10.7
2018-04-07T05:24:30.253Z,12.9
2018-04-07T05:25:31.891Z,9.9
2018-04-07T05:26:33.546Z,9.4
2018-04-07T05:27:35.191Z,10.6
2018-04-07T05:28:36.862Z,12.9
2018-04-07T05:29:38.505Z,11.9
2018-04-07T05:30:40.161Z,10.0
2018-04-07T05:31:41.823Z,12.5
2018-04-07T05:32:43.512Z,11.2
2018-04-07T05:33:45.191Z,9.7
2018-04-07T05:34:46.850Z,10.0
2018-04-07T05:35:48.502Z,12.2
2018-04-07T05:36:50.182Z,10.8
2018-04-07T05:37:51.829Z,13.3
2018-04-07T05:38:53.476Z,9.2
2018-04-07T05:39:55.135Z,11.7
2018-04-07T05:40:56.784Z,9.4
2018-04-07T05:41:58.431Z,16.1
2018-04-07T05:43:00.087Z,8.7
2018-04-07T05:44:01.738Z,9.7
2018-04-07T05:45:03.385Z,10.2
2018-04-07T05:46:05.047Z,12.6
2018-04-07T05:47:06.688Z,12.6
2018-04-07T05:48:08.344Z,13.1
2018-04-07T05:49:10.000Z,12.4
2018-04-07T05:50:11.648Z,11.0
2018-04-07T05:51:13.301Z,10.3
2018-04-07T05:52:14.947Z,10.5
2018-04-07T05:53:16.624Z,9.4
2018-04-07T05:54:18.264Z,10.2
2018-04-07T05:55:19.921Z,10.3
2018-04-07T06:01:53.886Z,7.8
2018-04-07T06:02:55.537Z,9.2
2018-04-07T06:04:47.448Z,11.1
2018-04-07T06:05:49.114Z,10.3
2018-04-07T06:06:50.769Z,15.0
2018-04-07T06:07:52.437Z,11.9
2018-04-07T06:08:54.093Z,10.9
2018-04-07T06:09:55.752Z,12.3
2018-04-07T06:10:57.414Z,12.2
2018-04-07T06:11:59.094Z,9.7
2018-04-07T06:13:00.744Z,11.0
2018-04-07T06:14:02.411Z,11.0
2018-04-07T06:15:04.099Z,9.4
2018-04-07T06:16:05.750Z,9.8
2018-04-07T06:17:07.412Z,10.5
2018-04-07T06:18:09.072Z,12.3
2018-04-07T06:19:10.717Z,11.4
2018-04-07T06:20:12.381Z,11.5
2018-04-07T06:21:14.048Z,9.9
2018-04-07T06:22:15.702Z,9.2
2018-04-07T06:23:17.365Z,11.3
2018-04-07T06:24:19.028Z,9.5
2018-04-07T06:25:20.689Z,11.1
2018-04-07T06:26:22.345Z,11.0
2018-04-07T06:27:23.998Z,8.9
2018-04-07T06:28:25.649Z,9.9
2018-04-07T06:29:27.310Z,9.9
2018-04-07T06:30:28.972Z,12.1
2018-04-07T06:31:30.642Z,12.9
2018-04-07T06:32:32.312Z,10.5
2018-04-07T06:33:33.963Z,11.8
2018-04-07T06:34:35.623Z,10.6
2018-04-07T06:35:37.296Z,13.9
2018-04-07T06:36:38.957Z,11.1
2018-04-07T06:37:40.614Z,16.3
2018-04-07T06:38:42.278Z,11.7
2018-04-07T06:39:43.936Z,10.6
2018-04-07T06:40:45.637Z,8.9
2018-04-07T06:41:47.304Z,11.2
2018-04-07T06:42:48.966Z,11.6
2018-04-07T06:43:50.620Z,11.2
2018-04-07T06:44:52.295Z,13.7
2018-04-07T06:45:53.962Z,13.4
2018-04-07T06:46:55.657Z,13.1
2018-04-07T06:47:58.259Z,13.3
2018-04-07T06:48:59.922Z,11.8
2018-04-07T06:50:01.584Z,14.5
2018-04-07T06:51:03.250Z,12.4
2018-04-07T06:52:04.907Z,11.8
2018-04-07T06:53:06.575Z,13.9
2018-04-07T06:54:08.234Z,12.5
2018-04-07T06:55:09.892Z,14.5
2018-04-07T06:56:11.552Z,11.6
2018-04-07T06:57:13.225Z,10.5
2018-04-07T06:58:14.882Z,9.9
2018-04-07T06:59:16.542Z,10.0
2018-04-07T07:00:18.236Z,14.6
2018-04-07T07:01:19.915Z,12.2
2018-04-07T07:02:21.617Z,11.1
2018-04-07T07:03:23.296Z,12.9
2018-04-07T07:04:24.960Z,11.9
2018-04-07T07:05:26.674Z,11.6
2018-04-07T07:06:28.344Z,10.6
2018-04-07T07:07:30.020Z,11.8
2018-04-07T07:08:31.812Z,11.0
2018-04-07T07:09:33.472Z,12.7
2018-04-07T07:10:35.147Z,16.8
2018-04-07T07:11:36.864Z,12.1
2018-04-07T07:12:38.531Z,12.7
2018-04-07T07:13:40.189Z,11.5
2018-04-07T07:14:41.851Z,11.0
2018-04-07T07:15:43.519Z,11.2
2018-04-07T07:16:45.212Z,11.3
2018-04-07T07:17:46.872Z,12.8
2018-04-07T07:18:48.549Z,9.9
2018-04-07T07:19:50.207Z,8.2
2018-04-07T07:20:51.869Z,12.1
2018-04-07T07:21:53.541Z,10.2
2018-04-07T07:22:55.219Z,9.6
2018-04-07T07:23:56.883Z,9.8
2018-04-07T07:24:58.548Z,10.5
2018-04-07T07:26:00.231Z,11.1
2018-04-07T07:27:01.892Z,9.5
2018-04-07T07:28:03.563Z,9.5
2018-04-07T07:29:05.233Z,9.5
2018-04-07T07:30:06.915Z,10.4
2018-04-07T07:31:08.593Z,13.1
2018-04-07T07:32:10.257Z,9.4
2018-04-07T07:33:11.924Z,10.8
2018-04-07T07:34:13.594Z,10.8
2018-04-07T07:35:15.260Z,12.2
2018-04-07T07:36:16.929Z,9.8
2018-04-07T07:37:18.607Z,9.9
2018-04-07T07:38:20.272Z,10.5
2018-04-07T07:39:21.949Z,10.1
2018-04-07T07:40:23.718Z,9.8
2018-04-07T07:41:25.390Z,16.5
2018-04-07T07:42:27.053Z,11.5
2018-04-07T07:43:28.718Z,8.8
2018-04-07T07:44:30.387Z,10.7
2018-04-07T07:45:32.060Z,11.8
2018-04-07T07:46:33.722Z,9.8
2018-04-07T07:47:35.403Z,9.4
2018-04-07T07:48:37.081Z,9.4
2018-04-07T07:49:38.751Z,10.1
2018-04-07T07:50:40.418Z,11.6
2018-04-07T07:51:42.079Z,12.4
2018-04-07T07:52:43.746Z,9.8
2018-04-07T07:53:45.444Z,9.4
2018-04-07T07:54:47.125Z,11.5
2018-04-07T07:55:48.807Z,10.3
2018-04-07T07:56:50.486Z,10.4
2018-04-07T07:57:52.172Z,11.9
2018-04-07T07:58:53.839Z,9.8
2018-04-07T07:59:55.537Z,11.2
2018-04-07T08:00:57.205Z,10.6
2018-04-07T08:01:59.199Z,10.9
2018-04-07T08:03:00.937Z,11.3
2018-04-07T08:04:02.621Z,9.9
2018-04-07T08:05:04.326Z,11.8
2018-04-07T08:06:06.004Z,9.8
2018-04-07T08:07:07.684Z,12.1
2018-04-07T08:08:09.345Z,10.7
2018-04-07T08:09:11.030Z,11.1
2018-04-07T08:10:12.721Z,12.5
2018-04-07T08:11:14.402Z,10.9
2018-04-07T08:12:16.099Z,11.8
2018-04-07T08:13:17.793Z,11.3
2018-04-07T08:14:19.460Z,11.7
2018-04-07T08:15:21.136Z,12.8
2018-04-07T08:16:22.814Z,11.4
2018-04-07T08:17:24.477Z,12.0
2018-04-07T08:18:26.149Z,11.4
2018-04-07T08:19:27.820Z,10.2
2018-04-07T08:20:29.489Z,9.9
2018-04-07T08:21:31.165Z,12.6
2018-04-07T08:22:32.831Z,12.0
2018-04-07T08:23:34.800Z,11.3
2018-04-07T08:24:36.446Z,11.6
2018-04-07T08:25:38.124Z,9.2
2018-04-07T08:26:39.796Z,10.2
2018-04-07T08:27:41.478Z,10.5
2018-04-07T08:28:43.136Z,11.5
2018-04-07T08:29:44.828Z,10.5
2018-04-07T08:30:46.489Z,11.5
2018-04-07T08:31:48.163Z,9.2
2018-04-07T08:32:49.833Z,11.8
2018-04-07T08:33:51.502Z,10.8
2018-04-07T08:34:53.175Z,10.6
2018-04-07T08:35:54.857Z,12.6
2018-04-07T08:36:56.522Z,11.9
2018-04-07T08:37:58.189Z,10.6
2018-04-07T08:38:59.867Z,11.4
2018-04-07T08:40:01.544Z,12.5
2018-04-07T08:41:03.252Z,11.1
2018-04-07T08:42:04.928Z,13.2
2018-04-07T08:43:06.604Z,10.6
2018-04-07T08:44:08.353Z,15.8
2018-04-07T08:45:10.031Z,14.0
2018-04-07T08:46:11.726Z,12.5
2018-04-07T08:47:13.401Z,11.7
2018-04-07T08:48:15.074Z,10.6
2018-04-07T08:49:16.754Z,10.1
2018-04-07T08:50:18.435Z,12.7
2018-04-07T08:51:20.103Z,9.8
2018-04-07T08:52:21.803Z,10.2
2018-04-07T08:53:23.548Z,11.5
2018-04-07T08:54:25.239Z,12.0
2018-04-07T08:55:26.905Z,10.1
2018-04-07T08:56:28.586Z,11.2
2018-04-07T08:57:30.251Z,11.3
2018-04-07T08:58:31.997Z,10.2
2018-04-07T08:59:33.678Z,12.2
2018-04-07T09:00:35.341Z,11.1
2018-04-07T09:01:37.031Z,12.2
2018-04-07T09:02:38.704Z,12.8
2018-04-07T09:03:40.388Z,9.5
2018-04-07T09:04:42.058Z,12.4
2018-04-07T09:05:43.754Z,13.8
2018-04-07T09:06:45.460Z,11.7
2018-04-07T09:07:47.149Z,11.6
2018-04-07T09:08:48.824Z,12.0
2018-04-07T09:09:50.508Z,11.6
2018-04-07T09:10:52.353Z,10.4
2018-04-07T09:11:54.050Z,9.1
2018-04-07T09:12:55.729Z,12.2
2018-04-07T09:13:57.406Z,12.9
2018-04-07T09:14:59.093Z,14.4
2018-04-07T09:16:00.769Z,11.8
2018-04-07T09:17:02.451Z,9.6
2018-04-07T09:18:04.155Z,12.2
2018-04-07T09:19:05.832Z,11.0
2018-04-07T09:20:07.514Z,10.8
2018-04-07T09:21:09.182Z,12.1
2018-04-07T09:22:10.909Z,9.8
2018-04-07T09:23:12.564Z,12.8
2018-04-07T09:24:14.259Z,13.0
2018-04-07T09:25:15.960Z,10.1
2018-04-07T09:26:17.627Z,10.9
2018-04-07T09:27:19.327Z,13.0
2018-04-07T09:28:22.850Z,12.0
2018-04-07T09:29:24.605Z,12.8
2018-04-07T09:30:27.684Z,11.7
2018-04-07T09:31:28.512Z,12.9
2018-04-07T09:32:30.188Z,13.6
2018-04-07T09:33:31.871Z,11.8
2018-04-07T09:34:33.552Z,13.6
2018-04-07T09:35:35.841Z,12.7
2018-04-07T09:36:37.518Z,12.0
2018-04-07T09:37:39.715Z,12.4
2018-04-07T09:38:41.346Z,18.1
2018-04-07T09:39:43.048Z,17.3
2018-04-07T09:40:45.248Z,12.9
2018-04-07T09:41:47.217Z,14.8
2018-04-07T09:42:49.288Z,17.3
2018-04-07T09:43:50.971Z,14.6
2018-04-07T09:44:52.656Z,11.7
2018-04-07T09:45:54.336Z,11.9
2018-04-07T09:46:56.010Z,11.4
2018-04-07T09:47:57.707Z,12.5
2018-04-07T09:48:59.385Z,12.5
2018-04-07T09:50:01.058Z,12.4
2018-04-07T09:51:02.736Z,13.9
2018-04-07T09:52:04.423Z,14.0
2018-04-07T09:53:06.093Z,12.6
2018-04-07T09:54:07.772Z,12.6
2018-04-07T09:55:09.444Z,11.8
2018-04-07T10:01:33.677Z,16.8
2018-04-07T10:02:35.390Z,12.6
2018-04-07T10:03:37.114Z,13.0
2018-04-07T10:04:38.786Z,13.0
2018-04-07T10:05:40.785Z,12.4
2018-04-07T10:06:42.617Z,11.0
2018-04-07T10:07:44.630Z,14.5
2018-04-07T10:08:46.539Z,15.8
2018-04-07T10:09:48.214Z,11.9
2018-04-07T10:10:49.896Z,11.3
2018-04-07T10:11:51.572Z,13.7
2018-04-07T10:12:53.247Z,14.5
2018-04-07T10:13:54.927Z,13.4
2018-04-07T10:14:56.731Z,13.5
2018-04-07T10:15:58.567Z,12.1
2018-04-07T10:17:00.588Z,13.2
2018-04-07T10:18:02.312Z,11.9
2018-04-07T10:19:03.982Z,11.9
2018-04-07T10:20:05.668Z,10.9
2018-04-07T10:21:07.344Z,11.9
2018-04-07T10:22:09.021Z,14.3
2018-04-07T10:23:10.694Z,14.4
2018-04-07T10:24:12.401Z,13.6
2018-04-07T10:25:14.081Z,15.7
2018-04-07T10:26:15.755Z,13.0
2018-04-07T10:27:17.442Z,14.4
2018-04-07T10:28:19.115Z,14.1
2018-04-07T10:29:20.799Z,13.3
2018-04-07T10:30:22.493Z,15.2
2018-04-07T10:31:24.165Z,13.7
2018-04-07T10:32:25.846Z,12.2
2018-04-07T10:33:27.532Z,14.0
2018-04-07T10:34:29.229Z,14.8
2018-04-07T10:35:30.907Z,15.1
2018-04-07T10:36:32.574Z,14.6
2018-04-07T10:37:34.282Z,12.5
2018-04-07T10:38:35.962Z,13.3
2018-04-07T10:39:37.656Z,11.4
2018-04-07T10:40:39.320Z,13.5
2018-04-07T10:41:41.072Z,13.6
2018-04-07T10:42:42.763Z,15.2
2018-04-07T10:43:44.439Z,12.4
2018-04-07T10:44:46.122Z,15.1
2018-04-07T10:45:47.794Z,12.9
2018-04-07T10:46:49.482Z,11.7
2018-04-07T10:47:51.166Z,14.2
2018-04-07T10:48:52.842Z,13.5
2018-04-07T10:49:54.526Z,13.1
2018-04-07T10:50:56.198Z,11.9
2018-04-07T10:51:57.877Z,13.9
2018-04-07T10:52:59.562Z,12.6
2018-04-07T10:54:01.242Z,14.8
2018-04-07T10:55:02.918Z,13.7
2018-04-07T10:56:04.620Z,14.2
2018-04-07T10:57:06.306Z,14.9
2018-04-07T10:58:07.987Z,14.5
2018-04-07T10:59:09.663Z,11.7
2018-04-07T11:00:11.355Z,11.9
2018-04-07T11:01:13.040Z,13.5
2018-04-07T11:02:14.710Z,13.9
2018-04-07T11:03:16.404Z,13.1
2018-04-07T11:04:18.111Z,13.7
2018-04-07T11:05:19.793Z,11.8
2018-04-07T11:06:21.482Z,13.1
2018-04-07T11:07:23.177Z,12.1
2018-04-07T11:08:24.850Z,11.0
2018-04-07T11:09:26.530Z,13.7
2018-04-07T11:10:28.230Z,12.6
2018-04-07T11:11:29.884Z,12.0
2018-04-07T11:12:31.605Z,12.6
2018-04-07T11:13:33.277Z,12.6
2018-04-07T11:14:34.956Z,15.4
2018-04-07T11:15:36.637Z,12.4
2018-04-07T11:16:38.317Z,10.9
2018-04-07T11:17:39.996Z,11.9
2018-04-07T11:18:41.681Z,9.3
2018-04-07T11:19:43.366Z,14.9
2018-04-07T11:20:45.072Z,12.2
2018-04-07T11:21:46.764Z,12.4
2018-04-07T11:22:48.439Z,12.7
2018-04-07T11:23:50.116Z,11.0
2018-04-07T11:24:51.792Z,11.5
2018-04-07T11:25:53.470Z,12.1
2018-04-07T11:26:55.146Z,12.9
2018-04-07T11:27:56.827Z,12.3
2018-04-07T11:28:58.516Z,11.7
2018-04-07T11:30:00.227Z,12.0
2018-04-07T11:31:01.877Z,10.7
2018-04-07T11:32:03.595Z,11.6
2018-04-07T11:33:05.285Z,12.4
2018-04-07T11:34:06.963Z,12.2
2018-04-07T11:35:08.647Z,12.4
2018-04-07T11:36:10.334Z,12.9
2018-04-07T11:37:12.004Z,11.6
2018-04-07T11:38:13.676Z,12.7
2018-04-07T11:39:15.361Z,12.8
2018-04-07T11:40:17.044Z,12.8
2018-04-07T11:41:18.719Z,12.3
2018-04-07T11:42:20.415Z,14.4
2018-04-07T11:43:22.096Z,12.9
2018-04-07T11:44:23.774Z,12.5
2018-04-07T11:45:25.454Z,11.9
2018-04-07T11:46:27.123Z,13.4
2018-04-07T11:47:28.802Z,13.3
2018-04-07T11:48:30.484Z,11.5
2018-04-07T11:49:32.177Z,13.7
2018-04-07T11:50:33.857Z,12.3
2018-04-07T11:51:35.531Z,13.7
2018-04-07T11:52:37.219Z,13.9
2018-04-07T11:53:38.900Z,13.1
2018-04-07T11:54:40.611Z,14.8
2018-04-07T11:55:42.312Z,14.6
2018-04-07T11:56:43.992Z,14.9
2018-04-07T11:57:45.724Z,13.8
2018-04-07T11:58:47.442Z,15.3
2018-04-07T11:59:49.121Z,14.5
2018-04-07T12:00:50.797Z,14.4
2018-04-07T12:01:56.460Z,16.2
2018-04-07T12:03:00.541Z,15.4
2018-04-07T12:04:03.185Z,13.2
2018-04-07T12:05:07.498Z,15.5
2018-04-07T12:06:10.731Z,14.9
2018-04-07T12:07:13.543Z,14.7
2018-04-07T12:08:16.629Z,14.2
2018-04-07T12:09:19.178Z,14.2
2018-04-07T12:10:21.638Z,13.2
2018-04-07T12:11:23.784Z,14.5
2018-04-07T12:12:25.587Z,12.0
2018-04-07T12:13:27.440Z,14.3
2018-04-07T12:14:29.144Z,12.2
2018-04-07T12:15:30.881Z,13.3
2018-04-07T12:16:32.607Z,11.2
2018-04-07T12:17:34.291Z,15.4
2018-04-07T12:18:35.991Z,11.5
2018-04-07T12:19:37.823Z,13.9
2018-04-07T12:20:39.512Z,12.2
2018-04-07T12:21:41.217Z,12.7
2018-04-07T12:22:42.899Z,13.0
2018-04-07T12:23:44.576Z,13.0
2018-04-07T12:24:46.509Z,13.3
2018-04-07T12:25:48.240Z,11.7
2018-04-07T12:26:49.862Z,13.1
2018-04-07T12:27:51.542Z,17.0
2018-04-07T12:28:53.215Z,13.5
2018-04-07T12:29:54.937Z,13.3
2018-04-07T12:30:59.231Z,12.8
2018-04-07T12:32:02.179Z,12.1
2018-04-07T12:33:03.857Z,11.8
2018-04-07T12:34:05.740Z,10.9
2018-04-07T12:35:07.596Z,11.1
2018-04-07T12:36:09.264Z,11.7
2018-04-07T12:37:10.952Z,10.7
2018-04-07T12:38:12.690Z,10.3
2018-04-07T12:39:14.400Z,11.8
2018-04-07T12:40:16.072Z,14.1
2018-04-07T12:41:17.889Z,10.8
2018-04-07T12:42:19.748Z,10.9
2018-04-07T12:43:21.459Z,12.3
2018-04-07T12:44:23.141Z,12.3
2018-04-07T12:45:24.820Z,10.2
2018-04-07T12:46:31.677Z,12.2
2018-04-07T12:47:33.356Z,11.2
2018-04-07T12:48:35.057Z,10.0
2018-04-07T12:49:37.170Z,11.8
2018-04-07T12:50:38.896Z,9.9
2018-04-07T12:51:41.189Z,9.4
2018-04-07T12:52:43.022Z,9.7
2018-04-07T12:53:45.213Z,12.6
2018-04-07T12:54:46.868Z,11.3
2018-04-07T12:55:49.897Z,12.4
2018-04-07T12:56:51.566Z,12.6
2018-04-07T12:57:53.841Z,11.6
2018-04-07T12:58:55.854Z,12.0
2018-04-07T12:59:57.527Z,12.6
2018-04-07T13:00:59.211Z,11.6
2018-04-07T13:02:00.904Z,11.5
2018-04-07T13:03:02.580Z,10.6
2018-04-07T13:04:04.270Z,12.4
2018-04-07T13:05:05.950Z,12.9
2018-04-07T13:06:07.634Z,12.5
2018-04-07T13:07:09.486Z,11.5
2018-04-07T13:08:11.160Z,12.0
2018-04-07T13:09:14.109Z,13.4
2018-04-07T13:10:16.598Z,10.7
2018-04-07T13:11:18.320Z,12.8
2018-04-07T13:12:20.077Z,11.4
2018-04-07T13:13:21.905Z,11.8
2018-04-07T13:14:23.696Z,13.4
2018-04-07T13:15:25.508Z,13.1
2018-04-07T13:16:27.185Z,10.9
2018-04-07T13:17:28.875Z,12.3
2018-04-07T13:18:30.552Z,12.2
2018-04-07T13:19:32.240Z,13.0
2018-04-07T13:20:33.907Z,11.4
2018-04-07T13:21:35.585Z,12.9
2018-04-07T13:22:37.290Z,13.7
2018-04-07T13:23:38.969Z,14.0
2018-04-07T13:24:40.668Z,11.0
2018-04-07T13:25:43.971Z,11.9
2018-04-07T13:26:45.958Z,13.3
2018-04-07T13:27:47.629Z,12.4
2018-04-07T13:28:49.304Z,12.5
2018-04-07T13:29:50.981Z,11.9
2018-04-07T13:30:52.828Z,11.7
2018-04-07T13:31:55.906Z,11.1
2018-04-07T13:32:57.570Z,15.3
2018-04-07T13:34:00.232Z,14.2
2018-04-07T13:35:01.880Z,13.1
2018-04-07T13:36:04.089Z,20.8
2018-04-07T13:37:05.755Z,11.6
2018-04-07T13:38:07.445Z,13.4
2018-04-07T13:39:09.117Z,13.3
2018-04-07T13:40:10.803Z,15.1
2018-04-07T13:41:12.807Z,13.8
2018-04-07T13:42:14.604Z,12.7
2018-04-07T13:43:16.286Z,14.5
2018-04-07T13:44:17.979Z,12.4
2018-04-07T13:45:22.242Z,11.3
2018-04-07T13:46:23.986Z,11.7
2018-04-07T13:47:26.235Z,12.3
2018-04-07T13:48:30.739Z,12.5
2018-04-07T13:49:32.641Z,13.0
2018-04-07T13:50:34.427Z,12.8
2018-04-07T13:51:36.217Z,13.8
2018-04-07T13:52:38.206Z,9.9
2018-04-07T13:53:39.998Z,14.2
2018-04-07T13:54:41.804Z,13.9
2018-04-07T14:01:19.597Z,15.0
2018-04-07T14:02:21.265Z,12.6
2018-04-07T14:03:22.959Z,12.6
2018-04-07T14:04:24.631Z,10.4
2018-04-07T14:05:26.560Z,13.5
2018-04-07T14:06:30.404Z,13.6
2018-04-07T14:07:32.797Z,12.0
2018-04-07T14:08:34.973Z,11.6
2018-04-07T14:09:36.978Z,11.0
2018-04-07T14:10:38.657Z,11.8
2018-04-07T14:11:40.374Z,11.6
2018-04-07T14:12:42.012Z,10.3
2018-04-07T14:13:43.680Z,13.3